sensor_id;sensor_type;location;lat;lon;timestamp;temperature;humidity
32536;DHT22;18974;50.838;4.636;2023-03-24T00:01:05;12.60;99.90
32536;DHT22;18974;50.838;4.636;2023-03-24T00:03:31;12.60;99.90
32536;DHT22;18974;50.838;4.636;2023-03-24T00:05:59;12.70;99.90
32536;DHT22;18974;50.838;4.636;2023-03-24T00:08:31;12.60;99.90
32536;DHT22;18974;50.838;4.636;2023-03-24T00:11:07;12.60;99.90
32536;DHT22;18974;50.838;4.636;2023-03-24T00:13:34;12.60;99.90
32536;DHT22;18974;50.838;4.636;2023-03-24T00:16:08;12.70;99.90
32536;DHT22;18974;50.838;4.636;2023-03-24T00:18:35;12.70;99.90
32536;DHT22;18974;50.838;4.636;2023-03-24T00:21:03;12.80;99.90
32536;DHT22;18974;50.838;4.636;2023-03-24T00:23:30;12.80;99.90
32536;DHT22;18974;50.838;4.636;2023-03-24T00:26:11;12.80;99.90
32536;DHT22;18974;50.838;4.636;2023-03-24T00:28:41;12.80;99.90
32536;DHT22;18974;50.838;4.636;2023-03-24T00:31:07;12.80;99.90
32536;DHT22;18974;50.838;4.636;2023-03-24T00:33:34;12.80;99.90
32536;DHT22;18974;50.838;4.636;2023-03-24T00:36:08;12.80;99.90
32536;DHT22;18974;50.838;4.636;2023-03-24T00:38:37;12.90;99.90
32536;DHT22;18974;50.838;4.636;2023-03-24T00:41:05;12.90;99.90
32536;DHT22;18974;50.838;4.636;2023-03-24T00:43:32;13.00;99.90
32536;DHT22;18974;50.838;4.636;2023-03-24T00:46:09;13.00;99.90
32536;DHT22;18974;50.838;4.636;2023-03-24T00:48:35;13.00;99.90
32536;DHT22;18974;50.838;4.636;2023-03-24T00:51:04;13.00;99.90
32536;DHT22;18974;50.838;4.636;2023-03-24T00:53:30;12.90;99.90
32536;DHT22;18974;50.838;4.636;2023-03-24T00:55:57;13.00;99.90
32536;DHT22;18974;50.838;4.636;2023-03-24T00:58:23;13.00;99.90
32536;DHT22;18974;50.838;4.636;2023-03-24T01:00:51;13.00;99.90
32536;DHT22;18974;50.838;4.636;2023-03-24T01:03:18;13.00;99.90
32536;DHT22;18974;50.838;4.636;2023-03-24T01:05:47;13.10;99.90
32536;DHT22;18974;50.838;4.636;2023-03-24T01:08:17;13.10;99.90
32536;DHT22;18974;50.838;4.636;2023-03-24T01:10:47;13.10;99.90
32536;DHT22;18974;50.838;4.636;2023-03-24T01:13:25;13.10;99.90
32536;DHT22;18974;50.838;4.636;2023-03-24T01:15:51;13.10;99.90
32536;DHT22;18974;50.838;4.636;2023-03-24T01:18:18;13.10;99.90
32536;DHT22;18974;50.838;4.636;2023-03-24T01:20:45;13.10;99.90
32536;DHT22;18974;50.838;4.636;2023-03-24T01:23:16;13.20;99.90
32536;DHT22;18974;50.838;4.636;2023-03-24T01:25:44;13.20;99.90
32536;DHT22;18974;50.838;4.636;2023-03-24T01:28:13;13.30;99.90
32536;DHT22;18974;50.838;4.636;2023-03-24T01:30:40;13.30;99.90
32536;DHT22;18974;50.838;4.636;2023-03-24T01:33:06;13.40;99.90
32536;DHT22;18974;50.838;4.636;2023-03-24T01:35:33;13.40;99.90
32536;DHT22;18974;50.838;4.636;2023-03-24T01:37:58;13.40;99.90
32536;DHT22;18974;50.838;4.636;2023-03-24T01:40:29;13.40;99.90
32536;DHT22;18974;50.838;4.636;2023-03-24T01:42:56;13.50;99.90
32536;DHT22;18974;50.838;4.636;2023-03-24T01:48:32;13.70;99.90
32536;DHT22;18974;50.838;4.636;2023-03-24T01:51:21;13.60;99.90
32536;DHT22;18974;50.838;4.636;2023-03-24T01:54:04;13.60;99.90
32536;DHT22;18974;50.838;4.636;2023-03-24T01:56:35;13.60;99.90
32536;DHT22;18974;50.838;4.636;2023-03-24T01:59:06;13.70;99.90
32536;DHT22;18974;50.838;4.636;2023-03-24T02:01:33;13.70;99.90
32536;DHT22;18974;50.838;4.636;2023-03-24T02:04:02;13.80;99.90
32536;DHT22;18974;50.838;4.636;2023-03-24T02:06:29;13.80;99.90
32536;DHT22;18974;50.838;4.636;2023-03-24T02:08:57;13.70;99.90
32536;DHT22;18974;50.838;4.636;2023-03-24T02:11:26;13.60;99.90
32536;DHT22;18974;50.838;4.636;2023-03-24T02:13:52;13.50;99.90
32536;DHT22;18974;50.838;4.636;2023-03-24T02:25:26;13.10;99.90
32536;DHT22;18974;50.838;4.636;2023-03-24T02:44:33;13.10;99.90
32536;DHT22;18974;50.838;4.636;2023-03-24T02:47:12;12.90;99.90
32536;DHT22;18974;50.838;4.636;2023-03-24T02:49:47;12.80;99.90
32536;DHT22;18974;50.838;4.636;2023-03-24T02:57:52;12.30;99.90
32536;DHT22;18974;50.838;4.636;2023-03-24T03:00:45;12.10;99.90
32536;DHT22;18974;50.838;4.636;2023-03-24T03:03:35;12.00;99.90
32536;DHT22;18974;50.838;4.636;2023-03-24T03:06:11;11.90;99.90
32536;DHT22;18974;50.838;4.636;2023-03-24T03:08:38;11.90;99.90
32536;DHT22;18974;50.838;4.636;2023-03-24T03:11:07;11.80;99.90
32536;DHT22;18974;50.838;4.636;2023-03-24T03:13:39;11.80;99.90
32536;DHT22;18974;50.838;4.636;2023-03-24T03:16:15;11.70;99.90
32536;DHT22;18974;50.838;4.636;2023-03-24T03:18:47;11.70;99.90
32536;DHT22;18974;50.838;4.636;2023-03-24T03:21:16;11.70;99.90
32536;DHT22;18974;50.838;4.636;2023-03-24T03:24:13;11.70;99.90
32536;DHT22;18974;50.838;4.636;2023-03-24T03:26:40;11.60;99.90
32536;DHT22;18974;50.838;4.636;2023-03-24T03:29:12;11.50;99.90
32536;DHT22;18974;50.838;4.636;2023-03-24T03:31:45;11.50;99.90
32536;DHT22;18974;50.838;4.636;2023-03-24T03:34:22;11.50;99.90
32536;DHT22;18974;50.838;4.636;2023-03-24T03:36:54;11.60;99.90
32536;DHT22;18974;50.838;4.636;2023-03-24T03:39:28;11.60;99.90
32536;DHT22;18974;50.838;4.636;2023-03-24T03:41:56;11.40;99.90
32536;DHT22;18974;50.838;4.636;2023-03-24T03:44:22;11.40;99.90
32536;DHT22;18974;50.838;4.636;2023-03-24T03:46:48;11.40;99.90
32536;DHT22;18974;50.838;4.636;2023-03-24T03:49:14;11.30;99.90
32536;DHT22;18974;50.838;4.636;2023-03-24T03:51:39;11.30;99.90
32536;DHT22;18974;50.838;4.636;2023-03-24T03:54:09;11.20;99.90
32536;DHT22;18974;50.838;4.636;2023-03-24T03:56:36;11.10;99.90
32536;DHT22;18974;50.838;4.636;2023-03-24T03:59:03;11.10;99.90
32536;DHT22;18974;50.838;4.636;2023-03-24T04:01:32;11.10;99.90
32536;DHT22;18974;50.838;4.636;2023-03-24T04:17:33;11.20;99.90
32536;DHT22;18974;50.838;4.636;2023-03-24T04:20:15;11.20;99.90
32536;DHT22;18974;50.838;4.636;2023-03-24T04:31:14;11.30;99.90
32536;DHT22;18974;50.838;4.636;2023-03-24T04:33:53;11.20;99.90
32536;DHT22;18974;50.838;4.636;2023-03-24T04:36:43;11.20;99.90
32536;DHT22;18974;50.838;4.636;2023-03-24T04:39:15;11.20;99.90
32536;DHT22;18974;50.838;4.636;2023-03-24T04:41:41;11.20;99.90
32536;DHT22;18974;50.838;4.636;2023-03-24T04:44:09;11.10;99.90
32536;DHT22;18974;50.838;4.636;2023-03-24T04:46:36;11.20;99.90
32536;DHT22;18974;50.838;4.636;2023-03-24T04:49:02;11.10;99.90
32536;DHT22;18974;50.838;4.636;2023-03-24T04:51:30;11.10;99.90
32536;DHT22;18974;50.838;4.636;2023-03-24T04:53:55;11.20;99.90
32536;DHT22;18974;50.838;4.636;2023-03-24T04:56:42;11.30;99.90
32536;DHT22;18974;50.838;4.636;2023-03-24T04:59:12;11.30;99.90
32536;DHT22;18974;50.838;4.636;2023-03-24T05:01:38;11.30;99.90
32536;DHT22;18974;50.838;4.636;2023-03-24T05:04:04;11.50;99.90
32536;DHT22;18974;50.838;4.636;2023-03-24T05:06:30;11.40;99.90
32536;DHT22;18974;50.838;4.636;2023-03-24T05:08:57;11.20;99.90
32536;DHT22;18974;50.838;4.636;2023-03-24T05:11:24;11.20;99.90
32536;DHT22;18974;50.838;4.636;2023-03-24T05:13:50;11.00;99.90
32536;DHT22;18974;50.838;4.636;2023-03-24T05:16:16;10.90;99.90
32536;DHT22;18974;50.838;4.636;2023-03-24T05:18:41;10.90;99.90
32536;DHT22;18974;50.838;4.636;2023-03-24T05:21:08;10.90;99.90
32536;DHT22;18974;50.838;4.636;2023-03-24T05:23:33;10.80;99.90
32536;DHT22;18974;50.838;4.636;2023-03-24T05:25:59;10.80;99.90
32536;DHT22;18974;50.838;4.636;2023-03-24T05:28:25;10.60;99.90
32536;DHT22;18974;50.838;4.636;2023-03-24T05:30:51;10.50;99.90
32536;DHT22;18974;50.838;4.636;2023-03-24T05:33:16;10.50;99.90
32536;DHT22;18974;50.838;4.636;2023-03-24T05:35:42;10.50;99.90
32536;DHT22;18974;50.838;4.636;2023-03-24T05:38:08;10.40;99.90
32536;DHT22;18974;50.838;4.636;2023-03-24T05:40:35;10.40;99.90
32536;DHT22;18974;50.838;4.636;2023-03-24T05:43:02;10.40;99.90
32536;DHT22;18974;50.838;4.636;2023-03-24T05:45:28;10.50;99.90
32536;DHT22;18974;50.838;4.636;2023-03-24T05:47:54;10.50;99.90
32536;DHT22;18974;50.838;4.636;2023-03-24T05:50:20;10.60;99.90
32536;DHT22;18974;50.838;4.636;2023-03-24T05:52:47;10.70;99.90
32536;DHT22;18974;50.838;4.636;2023-03-24T05:55:13;10.70;99.90
32536;DHT22;18974;50.838;4.636;2023-03-24T05:57:40;10.70;99.90
32536;DHT22;18974;50.838;4.636;2023-03-24T06:00:06;10.80;99.90
32536;DHT22;18974;50.838;4.636;2023-03-24T06:02:35;10.70;99.90
32536;DHT22;18974;50.838;4.636;2023-03-24T06:05:00;10.60;99.90
32536;DHT22;18974;50.838;4.636;2023-03-24T06:07:27;10.50;99.90
32536;DHT22;18974;50.838;4.636;2023-03-24T06:09:57;10.40;99.90
32536;DHT22;18974;50.838;4.636;2023-03-24T06:12:27;10.50;99.90
32536;DHT22;18974;50.838;4.636;2023-03-24T06:14:53;10.50;99.90
32536;DHT22;18974;50.838;4.636;2023-03-24T06:17:18;10.50;99.90
32536;DHT22;18974;50.838;4.636;2023-03-24T06:19:46;10.40;99.90
32536;DHT22;18974;50.838;4.636;2023-03-24T06:22:16;10.50;99.90
32536;DHT22;18974;50.838;4.636;2023-03-24T06:24:41;10.50;99.90
32536;DHT22;18974;50.838;4.636;2023-03-24T06:27:07;10.50;99.90
32536;DHT22;18974;50.838;4.636;2023-03-24T06:29:34;10.50;99.90
32536;DHT22;18974;50.838;4.636;2023-03-24T06:32:00;10.50;99.90
32536;DHT22;18974;50.838;4.636;2023-03-24T06:34:26;10.60;99.90
32536;DHT22;18974;50.838;4.636;2023-03-24T06:36:54;10.80;99.90
32536;DHT22;18974;50.838;4.636;2023-03-24T06:39:20;10.90;99.90
32536;DHT22;18974;50.838;4.636;2023-03-24T06:41:46;10.90;99.90
32536;DHT22;18974;50.838;4.636;2023-03-24T06:44:11;11.10;99.90
32536;DHT22;18974;50.838;4.636;2023-03-24T06:46:37;11.30;99.90
32536;DHT22;18974;50.838;4.636;2023-03-24T06:49:03;11.40;99.90
32536;DHT22;18974;50.838;4.636;2023-03-24T06:51:29;11.50;99.90
32536;DHT22;18974;50.838;4.636;2023-03-24T06:53:54;11.50;99.90
32536;DHT22;18974;50.838;4.636;2023-03-24T06:56:20;11.30;99.90
32536;DHT22;18974;50.838;4.636;2023-03-24T06:58:46;11.30;99.90
32536;DHT22;18974;50.838;4.636;2023-03-24T07:01:12;11.40;99.90
32536;DHT22;18974;50.838;4.636;2023-03-24T07:03:39;11.30;99.90
32536;DHT22;18974;50.838;4.636;2023-03-24T07:06:07;11.20;99.90
32536;DHT22;18974;50.838;4.636;2023-03-24T07:08:32;11.20;99.90
32536;DHT22;18974;50.838;4.636;2023-03-24T07:10:58;11.20;99.90
32536;DHT22;18974;50.838;4.636;2023-03-24T07:13:24;11.20;99.90
32536;DHT22;18974;50.838;4.636;2023-03-24T07:15:50;11.20;99.90
32536;DHT22;18974;50.838;4.636;2023-03-24T07:18:15;11.30;99.90
32536;DHT22;18974;50.838;4.636;2023-03-24T07:20:43;11.50;99.90
32536;DHT22;18974;50.838;4.636;2023-03-24T07:23:09;11.60;99.90
32536;DHT22;18974;50.838;4.636;2023-03-24T07:25:34;11.70;99.90
32536;DHT22;18974;50.838;4.636;2023-03-24T07:28:00;12.00;99.90
32536;DHT22;18974;50.838;4.636;2023-03-24T07:30:26;12.10;99.90
32536;DHT22;18974;50.838;4.636;2023-03-24T07:32:55;12.20;99.90
32536;DHT22;18974;50.838;4.636;2023-03-24T07:35:20;12.20;99.90
32536;DHT22;18974;50.838;4.636;2023-03-24T07:37:46;12.10;99.90
32536;DHT22;18974;50.838;4.636;2023-03-24T07:40:12;12.20;99.90
32536;DHT22;18974;50.838;4.636;2023-03-24T07:42:39;12.20;99.90
32536;DHT22;18974;50.838;4.636;2023-03-24T07:45:07;12.00;99.90
32536;DHT22;18974;50.838;4.636;2023-03-24T07:47:34;11.80;99.90
32536;DHT22;18974;50.838;4.636;2023-03-24T07:50:00;11.80;99.90
32536;DHT22;18974;50.838;4.636;2023-03-24T07:52:28;11.90;99.90
32536;DHT22;18974;50.838;4.636;2023-03-24T07:54:55;12.00;99.90
32536;DHT22;18974;50.838;4.636;2023-03-24T07:57:21;11.90;99.90
32536;DHT22;18974;50.838;4.636;2023-03-24T07:59:47;12.00;99.90
32536;DHT22;18974;50.838;4.636;2023-03-24T08:02:17;12.20;99.90
32536;DHT22;18974;50.838;4.636;2023-03-24T08:04:43;12.20;99.90
32536;DHT22;18974;50.838;4.636;2023-03-24T08:07:09;12.30;99.90
32536;DHT22;18974;50.838;4.636;2023-03-24T08:09:37;12.20;99.90
32536;DHT22;18974;50.838;4.636;2023-03-24T08:12:03;12.20;99.90
32536;DHT22;18974;50.838;4.636;2023-03-24T08:14:29;12.20;99.90
32536;DHT22;18974;50.838;4.636;2023-03-24T08:16:55;12.10;99.90
32536;DHT22;18974;50.838;4.636;2023-03-24T08:19:20;12.00;99.90
32536;DHT22;18974;50.838;4.636;2023-03-24T08:21:46;12.00;99.90
32536;DHT22;18974;50.838;4.636;2023-03-24T08:24:12;12.10;99.90
32536;DHT22;18974;50.838;4.636;2023-03-24T08:26:37;11.90;99.90
32536;DHT22;18974;50.838;4.636;2023-03-24T08:29:03;12.00;99.90
32536;DHT22;18974;50.838;4.636;2023-03-24T08:31:33;12.20;99.90
32536;DHT22;18974;50.838;4.636;2023-03-24T08:33:59;12.40;99.90
32536;DHT22;18974;50.838;4.636;2023-03-24T08:36:25;12.60;99.90
32536;DHT22;18974;50.838;4.636;2023-03-24T08:38:52;12.70;99.90
32536;DHT22;18974;50.838;4.636;2023-03-24T08:41:19;12.80;99.90
32536;DHT22;18974;50.838;4.636;2023-03-24T08:43:45;12.90;99.90
32536;DHT22;18974;50.838;4.636;2023-03-24T08:46:11;13.00;99.90
32536;DHT22;18974;50.838;4.636;2023-03-24T08:48:37;13.10;99.90
32536;DHT22;18974;50.838;4.636;2023-03-24T08:51:13;13.20;99.90
32536;DHT22;18974;50.838;4.636;2023-03-24T08:53:39;13.00;99.90
32536;DHT22;18974;50.838;4.636;2023-03-24T08:56:06;13.00;99.90
32536;DHT22;18974;50.838;4.636;2023-03-24T08:58:32;13.10;99.90
32536;DHT22;18974;50.838;4.636;2023-03-24T09:00:58;13.10;99.90
32536;DHT22;18974;50.838;4.636;2023-03-24T09:03:23;13.10;99.90
32536;DHT22;18974;50.838;4.636;2023-03-24T09:05:49;13.10;99.90
32536;DHT22;18974;50.838;4.636;2023-03-24T09:08:17;13.20;99.90
32536;DHT22;18974;50.838;4.636;2023-03-24T09:10:44;13.40;99.90
32536;DHT22;18974;50.838;4.636;2023-03-24T09:13:12;13.50;99.90
32536;DHT22;18974;50.838;4.636;2023-03-24T09:15:38;13.50;99.90
32536;DHT22;18974;50.838;4.636;2023-03-24T09:18:04;13.50;99.90
32536;DHT22;18974;50.838;4.636;2023-03-24T09:20:30;13.60;99.90
32536;DHT22;18974;50.838;4.636;2023-03-24T09:22:56;13.80;99.90
32536;DHT22;18974;50.838;4.636;2023-03-24T09:25:22;14.10;99.90
32536;DHT22;18974;50.838;4.636;2023-03-24T09:27:48;14.30;99.90
32536;DHT22;18974;50.838;4.636;2023-03-24T09:30:16;14.50;99.90
32536;DHT22;18974;50.838;4.636;2023-03-24T09:32:43;14.40;99.90
32536;DHT22;18974;50.838;4.636;2023-03-24T09:35:09;14.20;99.90
32536;DHT22;18974;50.838;4.636;2023-03-24T09:37:36;14.10;99.90
32536;DHT22;18974;50.838;4.636;2023-03-24T09:40:03;14.10;99.90
32536;DHT22;18974;50.838;4.636;2023-03-24T09:42:34;14.10;99.90
32536;DHT22;18974;50.838;4.636;2023-03-24T09:45:04;13.90;99.90
32536;DHT22;18974;50.838;4.636;2023-03-24T09:47:37;13.70;99.90
32536;DHT22;18974;50.838;4.636;2023-03-24T09:50:21;13.60;99.90
32536;DHT22;18974;50.838;4.636;2023-03-24T09:52:52;13.60;99.90
32536;DHT22;18974;50.838;4.636;2023-03-24T09:55:23;13.50;99.90
32536;DHT22;18974;50.838;4.636;2023-03-24T09:57:50;13.50;99.90
32536;DHT22;18974;50.838;4.636;2023-03-24T10:00:25;13.60;99.90
32536;DHT22;18974;50.838;4.636;2023-03-24T10:02:53;13.70;99.90
32536;DHT22;18974;50.838;4.636;2023-03-24T10:05:42;13.90;99.90
32536;DHT22;18974;50.838;4.636;2023-03-24T10:08:20;13.70;99.90
32536;DHT22;18974;50.838;4.636;2023-03-24T10:11:12;13.90;99.90
32536;DHT22;18974;50.838;4.636;2023-03-24T10:16:32;14.00;99.90
32536;DHT22;18974;50.838;4.636;2023-03-24T10:22:15;14.00;99.90
32536;DHT22;18974;50.838;4.636;2023-03-24T10:24:54;13.90;99.90
32536;DHT22;18974;50.838;4.636;2023-03-24T10:27:33;13.90;99.90
32536;DHT22;18974;50.838;4.636;2023-03-24T10:30:38;13.90;99.90
32536;DHT22;18974;50.838;4.636;2023-03-24T10:32:56;14.00;99.90
32536;DHT22;18974;50.838;4.636;2023-03-24T10:35:40;13.90;99.90
32536;DHT22;18974;50.838;4.636;2023-03-24T10:38:19;13.90;99.90
32536;DHT22;18974;50.838;4.636;2023-03-24T10:40:46;14.10;99.90
32536;DHT22;18974;50.838;4.636;2023-03-24T10:43:14;14.20;99.90
32536;DHT22;18974;50.838;4.636;2023-03-24T10:45:49;14.30;99.90
32536;DHT22;18974;50.838;4.636;2023-03-24T10:51:21;13.70;99.90
32536;DHT22;18974;50.838;4.636;2023-03-24T10:53:51;13.40;99.90
32536;DHT22;18974;50.838;4.636;2023-03-24T10:56:42;13.50;99.90
32536;DHT22;18974;50.838;4.636;2023-03-24T11:02:18;14.00;99.90
32536;DHT22;18974;50.838;4.636;2023-03-24T11:04:53;14.30;99.90
32536;DHT22;18974;50.838;4.636;2023-03-24T11:07:21;14.60;99.90
32536;DHT22;18974;50.838;4.636;2023-03-24T11:12:40;15.20;99.90
32536;DHT22;18974;50.838;4.636;2023-03-24T11:17:53;15.30;99.90
32536;DHT22;18974;50.838;4.636;2023-03-24T11:20:42;15.30;99.90
32536;DHT22;18974;50.838;4.636;2023-03-24T11:23:31;15.10;99.90
32536;DHT22;18974;50.838;4.636;2023-03-24T11:26:13;15.00;99.90
32536;DHT22;18974;50.838;4.636;2023-03-24T11:29:01;15.10;99.90
32536;DHT22;18974;50.838;4.636;2023-03-24T11:31:30;14.80;99.90
32536;DHT22;18974;50.838;4.636;2023-03-24T11:34:14;14.90;99.90
32536;DHT22;18974;50.838;4.636;2023-03-24T11:37:03;15.00;99.90
32536;DHT22;18974;50.838;4.636;2023-03-24T11:39:32;14.80;99.90
32536;DHT22;18974;50.838;4.636;2023-03-24T11:44:40;15.20;99.90
32536;DHT22;18974;50.838;4.636;2023-03-24T11:47:11;15.40;99.90
32536;DHT22;18974;50.838;4.636;2023-03-24T11:49:44;15.50;99.90
32536;DHT22;18974;50.838;4.636;2023-03-24T11:52:24;15.60;99.90
32536;DHT22;18974;50.838;4.636;2023-03-24T11:54:52;15.40;99.90
32536;DHT22;18974;50.838;4.636;2023-03-24T11:57:46;15.00;99.90
32536;DHT22;18974;50.838;4.636;2023-03-24T12:00:20;15.20;99.90
32536;DHT22;18974;50.838;4.636;2023-03-24T12:08:47;15.50;99.90
32536;DHT22;18974;50.838;4.636;2023-03-24T12:11:22;15.80;99.90
32536;DHT22;18974;50.838;4.636;2023-03-24T12:13:50;15.60;99.90
32536;DHT22;18974;50.838;4.636;2023-03-24T12:17:18;15.50;99.90
32536;DHT22;18974;50.838;4.636;2023-03-24T12:19:27;15.30;99.90
32536;DHT22;18974;50.838;4.636;2023-03-24T12:27:38;15.40;99.90
32536;DHT22;18974;50.838;4.636;2023-03-24T12:32:50;15.90;99.90
32536;DHT22;18974;50.838;4.636;2023-03-24T12:35:32;15.80;99.90
32536;DHT22;18974;50.838;4.636;2023-03-24T12:43:50;15.90;99.90
32536;DHT22;18974;50.838;4.636;2023-03-24T12:57:36;16.10;99.90
32536;DHT22;18974;50.838;4.636;2023-03-24T13:00:12;16.40;99.90
32536;DHT22;18974;50.838;4.636;2023-03-24T13:02:45;16.40;99.90
32536;DHT22;18974;50.838;4.636;2023-03-24T13:05:34;16.50;99.90
32536;DHT22;18974;50.838;4.636;2023-03-24T13:08:04;16.30;99.90
32536;DHT22;18974;50.838;4.636;2023-03-24T13:10:35;15.80;99.90
32536;DHT22;18974;50.838;4.636;2023-03-24T13:13:21;15.50;99.90
32536;DHT22;18974;50.838;4.636;2023-03-24T13:15:52;15.30;99.90
32536;DHT22;18974;50.838;4.636;2023-03-24T13:18:28;14.80;99.90
32536;DHT22;18974;50.838;4.636;2023-03-24T13:23:53;14.70;99.90
32536;DHT22;18974;50.838;4.636;2023-03-24T13:32:13;14.40;99.90
32536;DHT22;18974;50.838;4.636;2023-03-24T13:34:51;13.60;99.90
32536;DHT22;18974;50.838;4.636;2023-03-24T13:37:22;13.00;99.90
32536;DHT22;18974;50.838;4.636;2023-03-24T13:39:56;12.50;99.90
32536;DHT22;18974;50.838;4.636;2023-03-24T13:42:43;12.10;99.90
32536;DHT22;18974;50.838;4.636;2023-03-24T13:48:15;12.20;99.90
32536;DHT22;18974;50.838;4.636;2023-03-24T13:50:59;12.70;99.90
32536;DHT22;18974;50.838;4.636;2023-03-24T13:53:37;13.00;99.90
32536;DHT22;18974;50.838;4.636;2023-03-24T13:56:04;13.10;99.90
32536;DHT22;18974;50.838;4.636;2023-03-24T14:01:41;13.60;99.90
32536;DHT22;18974;50.838;4.636;2023-03-24T14:04:20;13.90;99.90
32536;DHT22;18974;50.838;4.636;2023-03-24T14:06:48;14.00;99.90
32536;DHT22;18974;50.838;4.636;2023-03-24T14:14:29;14.10;99.90
32536;DHT22;18974;50.838;4.636;2023-03-24T14:24:44;14.20;99.90
32536;DHT22;18974;50.838;4.636;2023-03-24T14:27:36;14.10;99.90
32536;DHT22;18974;50.838;4.636;2023-03-24T14:30:28;14.10;99.90
32536;DHT22;18974;50.838;4.636;2023-03-24T14:33:02;14.20;99.90
32536;DHT22;18974;50.838;4.636;2023-03-24T14:38:17;14.40;99.90
32536;DHT22;18974;50.838;4.636;2023-03-24T14:40:51;14.50;99.90
32536;DHT22;18974;50.838;4.636;2023-03-24T14:43:27;14.50;99.90
32536;DHT22;18974;50.838;4.636;2023-03-24T14:45:56;14.40;99.90
32536;DHT22;18974;50.838;4.636;2023-03-24T14:48:31;14.50;99.90
32536;DHT22;18974;50.838;4.636;2023-03-24T14:51:02;14.80;99.90
32536;DHT22;18974;50.838;4.636;2023-03-24T14:53:29;15.00;99.90
32536;DHT22;18974;50.838;4.636;2023-03-24T14:55:55;15.00;99.90
32536;DHT22;18974;50.838;4.636;2023-03-24T14:58:26;14.70;99.90
32536;DHT22;18974;50.838;4.636;2023-03-24T15:00:58;14.50;99.90
32536;DHT22;18974;50.838;4.636;2023-03-24T15:06:13;14.60;99.90
32536;DHT22;18974;50.838;4.636;2023-03-24T15:08:44;14.50;99.90
32536;DHT22;18974;50.838;4.636;2023-03-24T15:11:10;14.50;99.90
32536;DHT22;18974;50.838;4.636;2023-03-24T15:13:53;14.40;99.90
32536;DHT22;18974;50.838;4.636;2023-03-24T15:16:25;14.50;99.90
32536;DHT22;18974;50.838;4.636;2023-03-24T15:18:55;14.30;99.90
32536;DHT22;18974;50.838;4.636;2023-03-24T15:21:36;14.30;99.90
32536;DHT22;18974;50.838;4.636;2023-03-24T15:26:52;14.30;99.90
32536;DHT22;18974;50.838;4.636;2023-03-24T15:29:18;14.30;99.90
32536;DHT22;18974;50.838;4.636;2023-03-24T15:31:43;14.40;99.90
32536;DHT22;18974;50.838;4.636;2023-03-24T15:34:28;14.50;99.90
32536;DHT22;18974;50.838;4.636;2023-03-24T15:36:57;14.60;99.90
32536;DHT22;18974;50.838;4.636;2023-03-24T15:39:28;14.40;99.90
32536;DHT22;18974;50.838;4.636;2023-03-24T15:41:54;14.30;99.90
32536;DHT22;18974;50.838;4.636;2023-03-24T15:44:29;14.30;99.90
32536;DHT22;18974;50.838;4.636;2023-03-24T15:46:57;14.20;99.90
32536;DHT22;18974;50.838;4.636;2023-03-24T15:49:32;14.20;99.90
32536;DHT22;18974;50.838;4.636;2023-03-24T15:52:04;14.10;99.90
32536;DHT22;18974;50.838;4.636;2023-03-24T15:54:47;14.10;99.90
32536;DHT22;18974;50.838;4.636;2023-03-24T15:57:21;14.00;99.90
32536;DHT22;18974;50.838;4.636;2023-03-24T15:59:50;14.00;99.90
32536;DHT22;18974;50.838;4.636;2023-03-24T16:02:47;14.10;99.90
32536;DHT22;18974;50.838;4.636;2023-03-24T16:05:22;14.40;99.90
32536;DHT22;18974;50.838;4.636;2023-03-24T16:07:55;14.40;99.90
32536;DHT22;18974;50.838;4.636;2023-03-24T16:10:34;14.40;99.90
32536;DHT22;18974;50.838;4.636;2023-03-24T16:13:18;14.30;99.90
32536;DHT22;18974;50.838;4.636;2023-03-24T16:15:47;14.30;99.90
32536;DHT22;18974;50.838;4.636;2023-03-24T16:18:20;14.00;99.90
32536;DHT22;18974;50.838;4.636;2023-03-24T16:20:47;13.90;99.90
32536;DHT22;18974;50.838;4.636;2023-03-24T16:23:13;13.80;99.90
32536;DHT22;18974;50.838;4.636;2023-03-24T16:25:38;13.70;99.90
32536;DHT22;18974;50.838;4.636;2023-03-24T16:28:04;13.60;99.90
32536;DHT22;18974;50.838;4.636;2023-03-24T16:30:36;13.50;99.90
32536;DHT22;18974;50.838;4.636;2023-03-24T16:33:03;13.70;99.90
32536;DHT22;18974;50.838;4.636;2023-03-24T16:35:29;13.80;99.90
32536;DHT22;18974;50.838;4.636;2023-03-24T16:37:55;13.90;99.90
32536;DHT22;18974;50.838;4.636;2023-03-24T16:42:57;14.00;99.90
32536;DHT22;18974;50.838;4.636;2023-03-24T16:45:27;14.10;99.90
32536;DHT22;18974;50.838;4.636;2023-03-24T16:47:52;14.00;99.90
32536;DHT22;18974;50.838;4.636;2023-03-24T16:50:40;14.00;99.90
32536;DHT22;18974;50.838;4.636;2023-03-24T16:53:06;14.00;99.90
32536;DHT22;18974;50.838;4.636;2023-03-24T16:55:34;14.10;99.90
32536;DHT22;18974;50.838;4.636;2023-03-24T16:58:00;14.00;99.90
32536;DHT22;18974;50.838;4.636;2023-03-24T17:00:26;14.00;99.90
32536;DHT22;18974;50.838;4.636;2023-03-24T17:02:55;13.80;99.90
32536;DHT22;18974;50.838;4.636;2023-03-24T17:05:27;13.70;99.90
32536;DHT22;18974;50.838;4.636;2023-03-24T17:07:54;13.70;99.90
32536;DHT22;18974;50.838;4.636;2023-03-24T17:10:21;13.50;99.90
32536;DHT22;18974;50.838;4.636;2023-03-24T17:12:48;13.60;99.90
32536;DHT22;18974;50.838;4.636;2023-03-24T17:15:25;13.50;99.90
32536;DHT22;18974;50.838;4.636;2023-03-24T17:17:51;13.60;99.90
32536;DHT22;18974;50.838;4.636;2023-03-24T17:20:18;13.40;99.90
32536;DHT22;18974;50.838;4.636;2023-03-24T17:22:46;13.00;99.90
32536;DHT22;18974;50.838;4.636;2023-03-24T17:25:15;12.50;99.90
32536;DHT22;18974;50.838;4.636;2023-03-24T17:27:41;11.90;99.90
32536;DHT22;18974;50.838;4.636;2023-03-24T17:30:07;11.60;99.90
32536;DHT22;18974;50.838;4.636;2023-03-24T17:32:36;11.20;99.90
32536;DHT22;18974;50.838;4.636;2023-03-24T17:35:02;11.00;99.90
32536;DHT22;18974;50.838;4.636;2023-03-24T17:37:29;10.90;99.90
32536;DHT22;18974;50.838;4.636;2023-03-24T17:39:56;10.80;99.90
32536;DHT22;18974;50.838;4.636;2023-03-24T17:42:22;10.70;99.90
32536;DHT22;18974;50.838;4.636;2023-03-24T17:44:48;10.60;99.90
32536;DHT22;18974;50.838;4.636;2023-03-24T17:47:14;10.50;99.90
32536;DHT22;18974;50.838;4.636;2023-03-24T17:49:40;10.50;99.90
32536;DHT22;18974;50.838;4.636;2023-03-24T17:52:06;10.50;99.90
32536;DHT22;18974;50.838;4.636;2023-03-24T17:54:32;10.50;99.90
32536;DHT22;18974;50.838;4.636;2023-03-24T17:56:57;10.60;99.90
32536;DHT22;18974;50.838;4.636;2023-03-24T17:59:23;10.50;99.90
32536;DHT22;18974;50.838;4.636;2023-03-24T18:01:48;10.50;99.90
32536;DHT22;18974;50.838;4.636;2023-03-24T18:04:14;10.60;99.90
32536;DHT22;18974;50.838;4.636;2023-03-24T18:06:41;10.60;99.90
32536;DHT22;18974;50.838;4.636;2023-03-24T18:09:07;10.70;99.90
32536;DHT22;18974;50.838;4.636;2023-03-24T18:11:33;10.60;99.90
32536;DHT22;18974;50.838;4.636;2023-03-24T18:13:59;10.60;99.90
32536;DHT22;18974;50.838;4.636;2023-03-24T18:16:25;10.60;99.90